sensor_id;sensor_type;location;lat;lon;timestamp;P1;durP1;ratioP1;P2;durP2;ratioP2
5199;SDS011;2619;47.868;11.892;2022-12-07T00:01:07;15.30;;;9.60;;
5199;SDS011;2619;47.868;11.892;2022-12-07T00:03:35;12.87;;;8.20;;
5199;SDS011;2619;47.868;11.892;2022-12-07T00:06:03;15.50;;;9.80;;
5199;SDS011;2619;47.868;11.892;2022-12-07T00:08:30;14.33;;;8.90;;
5199;SDS011;2619;47.868;11.892;2022-12-07T00:11:03;15.10;;;10.37;;
5199;SDS011;2619;47.868;11.892;2022-12-07T00:13:34;13.03;;;8.50;;
5199;SDS011;2619;47.868;11.892;2022-12-07T00:16:01;12.20;;;8.47;;
5199;SDS011;2619;47.868;11.892;2022-12-07T00:18:31;15.93;;;8.90;;
5199;SDS011;2619;47.868;11.892;2022-12-07T00:21:01;13.50;;;7.93;;
5199;SDS011;2619;47.868;11.892;2022-12-07T00:23:32;12.53;;;8.80;;
5199;SDS011;2619;47.868;11.892;2022-12-07T00:26:09;13.77;;;8.17;;
5199;SDS011;2619;47.868;11.892;2022-12-07T00:28:55;14.90;;;9.97;;
5199;SDS011;2619;47.868;11.892;2022-12-07T00:31:24;13.97;;;7.80;;
5199;SDS011;2619;47.868;11.892;2022-12-07T00:33:52;14.00;;;9.73;;
5199;SDS011;2619;47.868;11.892;2022-12-07T00:36:19;13.30;;;8.73;;
5199;SDS011;2619;47.868;11.892;2022-12-07T00:38:47;13.77;;;8.23;;
5199;SDS011;2619;47.868;11.892;2022-12-07T00:41:13;14.93;;;9.07;;
5199;SDS011;2619;47.868;11.892;2022-12-07T00:43:44;15.67;;;9.23;;
5199;SDS011;2619;47.868;11.892;2022-12-07T00:46:10;16.37;;;11.00;;
5199;SDS011;2619;47.868;11.892;2022-12-07T00:48:37;16.97;;;11.10;;
5199;SDS011;2619;47.868;11.892;2022-12-07T00:51:03;17.03;;;11.47;;
5199;SDS011;2619;47.868;11.892;2022-12-07T00:53:30;19.67;;;11.33;;
5199;SDS011;2619;47.868;11.892;2022-12-07T00:55:56;14.53;;;9.00;;
5199;SDS011;2619;47.868;11.892;2022-12-07T00:58:22;16.33;;;10.30;;
5199;SDS011;2619;47.868;11.892;2022-12-07T01:00:48;14.33;;;8.77;;
5199;SDS011;2619;47.868;11.892;2022-12-07T01:03:14;14.20;;;8.97;;
5199;SDS011;2619;47.868;11.892;2022-12-07T01:05:48;13.50;;;9.03;;
5199;SDS011;2619;47.868;11.892;2022-12-07T01:08:15;14.93;;;8.97;;
5199;SDS011;2619;47.868;11.892;2022-12-07T01:10:41;14.30;;;9.43;;
5199;SDS011;2619;47.868;11.892;2022-12-07T01:13:07;15.30;;;9.80;;
5199;SDS011;2619;47.868;11.892;2022-12-07T01:15:32;14.33;;;9.00;;
5199;SDS011;2619;47.868;11.892;2022-12-07T01:17:58;14.23;;;9.30;;
5199;SDS011;2619;47.868;11.892;2022-12-07T01:20:23;13.70;;;7.37;;
5199;SDS011;2619;47.868;11.892;2022-12-07T01:22:49;16.97;;;9.60;;
5199;SDS011;2619;47.868;11.892;2022-12-07T01:25:14;12.20;;;8.83;;
5199;SDS011;2619;47.868;11.892;2022-12-07T01:27:40;12.73;;;8.77;;
5199;SDS011;2619;47.868;11.892;2022-12-07T01:30:06;11.97;;;7.60;;
5199;SDS011;2619;47.868;11.892;2022-12-07T01:32:32;14.63;;;9.40;;
5199;SDS011;2619;47.868;11.892;2022-12-07T01:34:58;13.13;;;8.47;;
5199;SDS011;2619;47.868;11.892;2022-12-07T01:37:23;15.80;;;8.93;;
5199;SDS011;2619;47.868;11.892;2022-12-07T01:39:50;12.30;;;9.40;;
5199;SDS011;2619;47.868;11.892;2022-12-07T01:42:16;12.50;;;8.30;;
5199;SDS011;2619;47.868;11.892;2022-12-07T01:47:53;19.40;;;10.20;;
5199;SDS011;2619;47.868;11.892;2022-12-07T01:50:21;15.47;;;9.33;;
5199;SDS011;2619;47.868;11.892;2022-12-07T01:52:51;15.73;;;10.33;;
5199;SDS011;2619;47.868;11.892;2022-12-07T01:55:21;15.00;;;9.70;;
5199;SDS011;2619;47.868;11.892;2022-12-07T01:57:48;16.50;;;10.00;;
5199;SDS011;2619;47.868;11.892;2022-12-07T02:00:16;16.17;;;8.80;;
5199;SDS011;2619;47.868;11.892;2022-12-07T02:02:47;16.23;;;9.80;;
5199;SDS011;2619;47.868;11.892;2022-12-07T02:05:17;13.57;;;8.93;;
5199;SDS011;2619;47.868;11.892;2022-12-07T02:07:44;16.87;;;11.37;;
5199;SDS011;2619;47.868;11.892;2022-12-07T02:12:46;14.80;;;10.37;;
5199;SDS011;2619;47.868;11.892;2022-12-07T02:15:16;12.87;;;9.43;;
5199;SDS011;2619;47.868;11.892;2022-12-07T02:17:55;18.40;;;10.07;;
5199;SDS011;2619;47.868;11.892;2022-12-07T02:20:35;20.03;;;9.97;;
5199;SDS011;2619;47.868;11.892;2022-12-07T02:26:10;17.60;;;11.10;;
5199;SDS011;2619;47.868;11.892;2022-12-07T02:34:42;15.70;;;10.17;;
5199;SDS011;2619;47.868;11.892;2022-12-07T02:37:34;16.10;;;9.80;;
5199;SDS011;2619;47.868;11.892;2022-12-07T02:40:10;21.33;;;10.77;;
5199;SDS011;2619;47.868;11.892;2022-12-07T02:42:45;17.07;;;10.43;;
5199;SDS011;2619;47.868;11.892;2022-12-07T02:45:17;12.77;;;9.77;;
5199;SDS011;2619;47.868;11.892;2022-12-07T02:47:45;14.10;;;10.33;;
5199;SDS011;2619;47.868;11.892;2022-12-07T02:50:15;16.77;;;10.40;;
5199;SDS011;2619;47.868;11.892;2022-12-07T02:52:44;14.27;;;9.80;;
5199;SDS011;2619;47.868;11.892;2022-12-07T02:55:10;18.03;;;10.73;;
5199;SDS011;2619;47.868;11.892;2022-12-07T02:57:41;15.80;;;9.97;;
5199;SDS011;2619;47.868;11.892;2022-12-07T03:00:27;14.20;;;10.40;;
5199;SDS011;2619;47.868;11.892;2022-12-07T03:03:01;18.13;;;10.77;;
5199;SDS011;2619;47.868;11.892;2022-12-07T03:08:07;18.33;;;10.83;;
5199;SDS011;2619;47.868;11.892;2022-12-07T03:10:56;16.53;;;10.50;;
5199;SDS011;2619;47.868;11.892;2022-12-07T03:18:39;18.03;;;12.00;;
5199;SDS011;2619;47.868;11.892;2022-12-07T03:21:11;19.37;;;11.40;;
5199;SDS011;2619;47.868;11.892;2022-12-07T03:23:41;19.93;;;12.30;;
5199;SDS011;2619;47.868;11.892;2022-12-07T03:26:10;22.90;;;13.20;;
5199;SDS011;2619;47.868;11.892;2022-12-07T03:28:40;16.73;;;11.03;;
5199;SDS011;2619;47.868;11.892;2022-12-07T03:31:12;18.57;;;10.93;;
5199;SDS011;2619;47.868;11.892;2022-12-07T03:33:49;19.97;;;12.77;;
5199;SDS011;2619;47.868;11.892;2022-12-07T03:36:25;17.20;;;11.20;;
5199;SDS011;2619;47.868;11.892;2022-12-07T03:41:29;20.87;;;11.97;;
5199;SDS011;2619;47.868;11.892;2022-12-07T03:43:58;19.27;;;11.43;;
5199;SDS011;2619;47.868;11.892;2022-12-07T03:46:31;19.17;;;12.30;;
5199;SDS011;2619;47.868;11.892;2022-12-07T03:54:44;24.43;;;13.23;;
5199;SDS011;2619;47.868;11.892;2022-12-07T03:57:25;18.07;;;11.30;;
5199;SDS011;2619;47.868;11.892;2022-12-07T03:59:53;19.67;;;12.47;;
5199;SDS011;2619;47.868;11.892;2022-12-07T04:02:21;22.60;;;12.10;;
5199;SDS011;2619;47.868;11.892;2022-12-07T04:04:48;18.13;;;11.77;;
5199;SDS011;2619;47.868;11.892;2022-12-07T04:07:14;19.43;;;11.40;;
5199;SDS011;2619;47.868;11.892;2022-12-07T04:09:39;20.60;;;11.80;;
5199;SDS011;2619;47.868;11.892;2022-12-07T04:12:05;21.77;;;12.63;;
5199;SDS011;2619;47.868;11.892;2022-12-07T04:14:31;21.13;;;12.50;;
5199;SDS011;2619;47.868;11.892;2022-12-07T04:16:57;18.93;;;11.30;;
5199;SDS011;2619;47.868;11.892;2022-12-07T04:19:24;17.57;;;10.90;;
5199;SDS011;2619;47.868;11.892;2022-12-07T04:21:51;16.97;;;10.80;;
5199;SDS011;2619;47.868;11.892;2022-12-07T04:24:17;17.47;;;11.63;;
5199;SDS011;2619;47.868;11.892;2022-12-07T04:26:43;21.67;;;11.60;;
5199;SDS011;2619;47.868;11.892;2022-12-07T04:29:10;16.90;;;10.83;;
5199;SDS011;2619;47.868;11.892;2022-12-07T04:31:36;18.07;;;10.57;;
5199;SDS011;2619;47.868;11.892;2022-12-07T04:34:02;18.93;;;11.30;;
5199;SDS011;2619;47.868;11.892;2022-12-07T04:36:28;21.30;;;11.97;;
5199;SDS011;2619;47.868;11.892;2022-12-07T04:38:54;16.50;;;10.20;;
5199;SDS011;2619;47.868;11.892;2022-12-07T04:41:20;16.37;;;9.90;;
5199;SDS011;2619;47.868;11.892;2022-12-07T04:43:52;20.10;;;10.80;;
5199;SDS011;2619;47.868;11.892;2022-12-07T04:46:20;16.20;;;10.63;;
5199;SDS011;2619;47.868;11.892;2022-12-07T04:48:45;18.70;;;11.03;;
5199;SDS011;2619;47.868;11.892;2022-12-07T04:51:11;16.80;;;10.37;;
5199;SDS011;2619;47.868;11.892;2022-12-07T04:53:37;20.47;;;12.20;;
5199;SDS011;2619;47.868;11.892;2022-12-07T04:56:02;17.27;;;10.40;;
5199;SDS011;2619;47.868;11.892;2022-12-07T04:58:28;19.73;;;11.63;;
5199;SDS011;2619;47.868;11.892;2022-12-07T05:00:54;19.97;;;11.73;;
5199;SDS011;2619;47.868;11.892;2022-12-07T05:03:20;17.73;;;11.40;;
5199;SDS011;2619;47.868;11.892;2022-12-07T05:05:45;19.17;;;11.57;;
5199;SDS011;2619;47.868;11.892;2022-12-07T05:08:11;17.60;;;10.77;;
5199;SDS011;2619;47.868;11.892;2022-12-07T05:10:37;20.17;;;11.93;;
5199;SDS011;2619;47.868;11.892;2022-12-07T05:13:02;19.87;;;11.50;;
5199;SDS011;2619;47.868;11.892;2022-12-07T05:15:28;17.13;;;9.90;;
5199;SDS011;2619;47.868;11.892;2022-12-07T05:17:53;18.70;;;12.23;;
5199;SDS011;2619;47.868;11.892;2022-12-07T05:20:19;20.70;;;11.67;;
5199;SDS011;2619;47.868;11.892;2022-12-07T05:22:45;22.23;;;12.60;;
5199;SDS011;2619;47.868;11.892;2022-12-07T05:25:11;20.97;;;12.63;;
5199;SDS011;2619;47.868;11.892;2022-12-07T05:27:36;20.20;;;11.87;;
5199;SDS011;2619;47.868;11.892;2022-12-07T05:30:02;20.50;;;11.73;;
5199;SDS011;2619;47.868;11.892;2022-12-07T05:32:28;22.27;;;11.43;;
5199;SDS011;2619;47.868;11.892;2022-12-07T05:34:54;24.93;;;12.40;;
5199;SDS011;2619;47.868;11.892;2022-12-07T05:37:20;24.03;;;11.77;;
5199;SDS011;2619;47.868;11.892;2022-12-07T05:39:45;21.87;;;12.50;;
5199;SDS011;2619;47.868;11.892;2022-12-07T05:42:11;23.50;;;12.70;;
5199;SDS011;2619;47.868;11.892;2022-12-07T05:44:37;19.90;;;11.40;;
5199;SDS011;2619;47.868;11.892;2022-12-07T05:47:03;24.93;;;13.97;;
5199;SDS011;2619;47.868;11.892;2022-12-07T05:49:29;23.10;;;12.53;;
5199;SDS011;2619;47.868;11.892;2022-12-07T05:51:54;22.80;;;12.37;;
5199;SDS011;2619;47.868;11.892;2022-12-07T05:54:20;19.00;;;10.93;;
5199;SDS011;2619;47.868;11.892;2022-12-07T05:56:46;23.10;;;13.00;;
5199;SDS011;2619;47.868;11.892;2022-12-07T05:59:11;23.00;;;12.60;;
5199;SDS011;2619;47.868;11.892;2022-12-07T06:01:56;22.93;;;14.00;;
5199;SDS011;2619;47.868;11.892;2022-12-07T06:04:24;22.00;;;12.27;;
5199;SDS011;2619;47.868;11.892;2022-12-07T06:06:52;20.87;;;12.60;;
5199;SDS011;2619;47.868;11.892;2022-12-07T06:09:18;21.97;;;11.90;;
5199;SDS011;2619;47.868;11.892;2022-12-07T06:11:45;25.40;;;12.03;;
5199;SDS011;2619;47.868;11.892;2022-12-07T06:14:29;23.40;;;12.17;;
5199;SDS011;2619;47.868;11.892;2022-12-07T06:16:55;23.97;;;12.50;;
5199;SDS011;2619;47.868;11.892;2022-12-07T06:19:21;21.70;;;12.90;;
5199;SDS011;2619;47.868;11.892;2022-12-07T06:21:47;24.70;;;14.30;;
5199;SDS011;2619;47.868;11.892;2022-12-07T06:24:13;26.97;;;14.77;;
5199;SDS011;2619;47.868;11.892;2022-12-07T06:26:39;25.20;;;13.20;;
5199;SDS011;2619;47.868;11.892;2022-12-07T06:29:05;26.10;;;14.50;;
5199;SDS011;2619;47.868;11.892;2022-12-07T06:31:31;24.43;;;14.73;;
5199;SDS011;2619;47.868;11.892;2022-12-07T06:33:58;26.00;;;14.47;;
5199;SDS011;2619;47.868;11.892;2022-12-07T06:36:24;23.97;;;12.57;;
5199;SDS011;2619;47.868;11.892;2022-12-07T06:38:50;27.77;;;12.40;;
5199;SDS011;2619;47.868;11.892;2022-12-07T06:41:16;20.17;;;11.13;;
5199;SDS011;2619;47.868;11.892;2022-12-07T06:43:41;16.93;;;9.23;;
5199;SDS011;2619;47.868;11.892;2022-12-07T06:46:07;16.60;;;9.30;;
5199;SDS011;2619;47.868;11.892;2022-12-07T06:48:33;17.87;;;10.30;;
5199;SDS011;2619;47.868;11.892;2022-12-07T06:50:58;15.83;;;9.60;;
5199;SDS011;2619;47.868;11.892;2022-12-07T06:53:24;18.40;;;8.87;;
5199;SDS011;2619;47.868;11.892;2022-12-07T06:55:50;19.30;;;9.97;;
5199;SDS011;2619;47.868;11.892;2022-12-07T06:58:15;15.67;;;7.70;;
5199;SDS011;2619;47.868;11.892;2022-12-07T07:00:42;13.70;;;7.93;;
5199;SDS011;2619;47.868;11.892;2022-12-07T07:03:08;14.00;;;8.17;;
5199;SDS011;2619;47.868;11.892;2022-12-07T07:05:34;16.23;;;8.03;;
5199;SDS011;2619;47.868;11.892;2022-12-07T07:08:00;13.00;;;7.00;;
5199;SDS011;2619;47.868;11.892;2022-12-07T07:10:25;13.70;;;7.80;;
5199;SDS011;2619;47.868;11.892;2022-12-07T07:12:51;14.60;;;7.57;;
5199;SDS011;2619;47.868;11.892;2022-12-07T07:15:16;16.40;;;8.27;;
5199;SDS011;2619;47.868;11.892;2022-12-07T07:17:42;15.47;;;7.13;;
5199;SDS011;2619;47.868;11.892;2022-12-07T07:20:08;12.90;;;7.30;;
5199;SDS011;2619;47.868;11.892;2022-12-07T07:22:34;12.00;;;6.40;;
5199;SDS011;2619;47.868;11.892;2022-12-07T07:25:00;12.73;;;7.93;;
5199;SDS011;2619;47.868;11.892;2022-12-07T07:27:25;9.90;;;5.80;;
5199;SDS011;2619;47.868;11.892;2022-12-07T07:29:51;13.40;;;6.30;;
5199;SDS011;2619;47.868;11.892;2022-12-07T07:32:16;14.60;;;7.73;;
5199;SDS011;2619;47.868;11.892;2022-12-07T07:34:42;13.20;;;7.20;;
5199;SDS011;2619;47.868;11.892;2022-12-07T07:37:08;14.53;;;7.90;;
5199;SDS011;2619;47.868;11.892;2022-12-07T07:39:33;13.50;;;7.57;;
5199;SDS011;2619;47.868;11.892;2022-12-07T07:41:59;16.83;;;8.53;;
5199;SDS011;2619;47.868;11.892;2022-12-07T07:44:24;17.43;;;9.73;;
5199;SDS011;2619;47.868;11.892;2022-12-07T07:46:50;15.37;;;8.30;;
5199;SDS011;2619;47.868;11.892;2022-12-07T07:49:15;19.00;;;9.90;;
5199;SDS011;2619;47.868;11.892;2022-12-07T07:51:41;18.03;;;10.57;;
5199;SDS011;2619;47.868;11.892;2022-12-07T07:54:07;17.17;;;10.73;;
5199;SDS011;2619;47.868;11.892;2022-12-07T07:56:32;15.23;;;8.03;;
5199;SDS011;2619;47.868;11.892;2022-12-07T07:58:58;21.23;;;8.83;;
5199;SDS011;2619;47.868;11.892;2022-12-07T08:01:23;16.47;;;8.40;;
5199;SDS011;2619;47.868;11.892;2022-12-07T08:03:49;15.60;;;8.57;;
5199;SDS011;2619;47.868;11.892;2022-12-07T08:06:15;14.07;;;7.83;;
5199;SDS011;2619;47.868;11.892;2022-12-07T08:08:40;20.73;;;8.43;;
5199;SDS011;2619;47.868;11.892;2022-12-07T08:11:07;16.23;;;9.30;;
5199;SDS011;2619;47.868;11.892;2022-12-07T08:13:34;13.03;;;7.83;;
5199;SDS011;2619;47.868;11.892;2022-12-07T08:16:03;18.37;;;9.70;;
5199;SDS011;2619;47.868;11.892;2022-12-07T08:18:37;16.00;;;8.63;;
5199;SDS011;2619;47.868;11.892;2022-12-07T08:21:04;17.27;;;9.20;;
5199;SDS011;2619;47.868;11.892;2022-12-07T08:23:31;20.90;;;9.57;;
5199;SDS011;2619;47.868;11.892;2022-12-07T08:26:05;17.40;;;10.13;;
5199;SDS011;2619;47.868;11.892;2022-12-07T08:28:34;16.40;;;10.47;;
5199;SDS011;2619;47.868;11.892;2022-12-07T08:31:04;15.17;;;9.73;;
5199;SDS011;2619;47.868;11.892;2022-12-07T08:33:32;14.67;;;9.40;;
5199;SDS011;2619;47.868;11.892;2022-12-07T08:36:01;19.27;;;9.90;;
5199;SDS011;2619;47.868;11.892;2022-12-07T08:38:28;16.30;;;10.50;;
5199;SDS011;2619;47.868;11.892;2022-12-07T08:40:54;20.80;;;11.80;;
5199;SDS011;2619;47.868;11.892;2022-12-07T08:43:21;16.43;;;9.70;;
5199;SDS011;2619;47.868;11.892;2022-12-07T08:45:48;17.27;;;11.00;;
5199;SDS011;2619;47.868;11.892;2022-12-07T08:48:18;17.80;;;10.40;;
5199;SDS011;2619;47.868;11.892;2022-12-07T08:50:46;22.60;;;10.23;;
5199;SDS011;2619;47.868;11.892;2022-12-07T08:53:13;18.40;;;11.30;;
5199;SDS011;2619;47.868;11.892;2022-12-07T08:55:39;21.13;;;12.07;;
5199;SDS011;2619;47.868;11.892;2022-12-07T08:58:04;20.93;;;11.07;;
5199;SDS011;2619;47.868;11.892;2022-12-07T09:00:30;16.57;;;9.10;;
5199;SDS011;2619;47.868;11.892;2022-12-07T09:02:56;17.57;;;9.60;;
5199;SDS011;2619;47.868;11.892;2022-12-07T09:05:21;17.03;;;9.90;;
5199;SDS011;2619;47.868;11.892;2022-12-07T09:07:49;15.67;;;9.90;;
5199;SDS011;2619;47.868;11.892;2022-12-07T09:10:19;16.07;;;8.50;;
5199;SDS011;2619;47.868;11.892;2022-12-07T09:12:45;18.57;;;10.30;;
5199;SDS011;2619;47.868;11.892;2022-12-07T09:15:11;16.57;;;9.90;;
5199;SDS011;2619;47.868;11.892;2022-12-07T09:17:36;15.70;;;9.03;;
5199;SDS011;2619;47.868;11.892;2022-12-07T09:20:03;15.63;;;9.47;;
5199;SDS011;2619;47.868;11.892;2022-12-07T09:22:30;17.40;;;9.67;;
5199;SDS011;2619;47.868;11.892;2022-12-07T09:24:59;17.80;;;10.73;;
5199;SDS011;2619;47.868;11.892;2022-12-07T09:27:26;16.53;;;10.10;;
5199;SDS011;2619;47.868;11.892;2022-12-07T09:29:53;15.87;;;9.57;;
5199;SDS011;2619;47.868;11.892;2022-12-07T09:32:18;16.03;;;9.13;;
5199;SDS011;2619;47.868;11.892;2022-12-07T09:34:44;17.17;;;9.90;;
5199;SDS011;2619;47.868;11.892;2022-12-07T09:37:10;18.47;;;9.50;;
5199;SDS011;2619;47.868;11.892;2022-12-07T09:39:39;21.33;;;10.90;;
5199;SDS011;2619;47.868;11.892;2022-12-07T09:42:05;17.13;;;9.70;;
5199;SDS011;2619;47.868;11.892;2022-12-07T09:44:32;19.30;;;10.70;;
5199;SDS011;2619;47.868;11.892;2022-12-07T09:46:58;20.43;;;10.63;;
5199;SDS011;2619;47.868;11.892;2022-12-07T09:49:25;19.60;;;11.63;;
5199;SDS011;2619;47.868;11.892;2022-12-07T09:52:03;17.67;;;10.63;;
5199;SDS011;2619;47.868;11.892;2022-12-07T09:54:45;17.70;;;10.20;;
5199;SDS011;2619;47.868;11.892;2022-12-07T09:57:13;18.47;;;10.70;;
5199;SDS011;2619;47.868;11.892;2022-12-07T09:59:39;15.80;;;10.00;;
5199;SDS011;2619;47.868;11.892;2022-12-07T10:02:22;17.77;;;10.70;;
5199;SDS011;2619;47.868;11.892;2022-12-07T10:04:52;22.33;;;10.97;;
5199;SDS011;2619;47.868;11.892;2022-12-07T10:07:18;16.70;;;10.30;;
5199;SDS011;2619;47.868;11.892;2022-12-07T10:09:44;15.70;;;9.30;;
5199;SDS011;2619;47.868;11.892;2022-12-07T10:12:11;14.23;;;9.20;;
5199;SDS011;2619;47.868;11.892;2022-12-07T10:14:38;14.80;;;9.10;;
5199;SDS011;2619;47.868;11.892;2022-12-07T10:20:11;15.20;;;9.80;;
5199;SDS011;2619;47.868;11.892;2022-12-07T10:22:53;15.90;;;10.00;;
5199;SDS011;2619;47.868;11.892;2022-12-07T10:25:21;14.00;;;9.10;;
5199;SDS011;2619;47.868;11.892;2022-12-07T10:28:01;12.80;;;8.30;;
5199;SDS011;2619;47.868;11.892;2022-12-07T10:30:46;12.50;;;8.03;;
5199;SDS011;2619;47.868;11.892;2022-12-07T10:36:22;14.20;;;8.13;;
5199;SDS011;2619;47.868;11.892;2022-12-07T10:39:03;13.70;;;7.87;;
5199;SDS011;2619;47.868;11.892;2022-12-07T10:44:30;15.40;;;7.90;;
5199;SDS011;2619;47.868;11.892;2022-12-07T10:47:00;11.10;;;6.83;;
5199;SDS011;2619;47.868;11.892;2022-12-07T10:52:41;12.20;;;7.40;;
5199;SDS011;2619;47.868;11.892;2022-12-07T10:55:11;9.60;;;7.00;;
5199;SDS011;2619;47.868;11.892;2022-12-07T11:00:46;10.07;;;5.90;;
5199;SDS011;2619;47.868;11.892;2022-12-07T11:11:55;6.70;;;5.13;;
5199;SDS011;2619;47.868;11.892;2022-12-07T11:14:27;8.77;;;5.53;;
5199;SDS011;2619;47.868;11.892;2022-12-07T11:17:13;9.13;;;5.87;;
5199;SDS011;2619;47.868;11.892;2022-12-07T11:22:13;8.83;;;5.80;;
5199;SDS011;2619;47.868;11.892;2022-12-07T11:24:55;7.97;;;5.10;;
5199;SDS011;2619;47.868;11.892;2022-12-07T11:30:38;10.47;;;5.50;;
5199;SDS011;2619;47.868;11.892;2022-12-07T11:33:17;10.13;;;5.23;;
5199;SDS011;2619;47.868;11.892;2022-12-07T11:36:02;7.97;;;4.87;;
5199;SDS011;2619;47.868;11.892;2022-12-07T11:38:49;6.47;;;4.30;;
5199;SDS011;2619;47.868;11.892;2022-12-07T11:41:22;7.97;;;5.13;;
5199;SDS011;2619;47.868;11.892;2022-12-07T11:47:25;9.00;;;4.60;;
5199;SDS011;2619;47.868;11.892;2022-12-07T12:01:43;8.73;;;3.93;;
5199;SDS011;2619;47.868;11.892;2022-12-07T12:03:55;9.60;;;4.90;;
5199;SDS011;2619;47.868;11.892;2022-12-07T12:06:26;7.60;;;3.80;;
5199;SDS011;2619;47.868;11.892;2022-12-07T12:19:40;5.50;;;3.57;;
5199;SDS011;2619;47.868;11.892;2022-12-07T12:22:12;6.50;;;4.10;;
5199;SDS011;2619;47.868;11.892;2022-12-07T12:24:52;6.10;;;4.10;;
5199;SDS011;2619;47.868;11.892;2022-12-07T12:29:55;8.30;;;4.20;;
5199;SDS011;2619;47.868;11.892;2022-12-07T12:32:31;5.13;;;3.40;;
5199;SDS011;2619;47.868;11.892;2022-12-07T12:37:54;5.17;;;3.60;;
5199;SDS011;2619;47.868;11.892;2022-12-07T12:42:53;6.43;;;3.90;;
5199;SDS011;2619;47.868;11.892;2022-12-07T12:45:29;5.70;;;3.77;;
5199;SDS011;2619;47.868;11.892;2022-12-07T12:48:03;5.90;;;3.53;;
5199;SDS011;2619;47.868;11.892;2022-12-07T12:51:35;6.00;;;3.87;;
5199;SDS011;2619;47.868;11.892;2022-12-07T12:59:32;8.50;;;4.77;;
5199;SDS011;2619;47.868;11.892;2022-12-07T13:05:31;8.80;;;5.70;;
5199;SDS011;2619;47.868;11.892;2022-12-07T13:15:36;7.40;;;4.60;;
5199;SDS011;2619;47.868;11.892;2022-12-07T13:18:49;7.07;;;4.70;;
5199;SDS011;2619;47.868;11.892;2022-12-07T13:20:59;7.47;;;4.90;;
5199;SDS011;2619;47.868;11.892;2022-12-07T13:26:03;5.87;;;4.00;;
5199;SDS011;2619;47.868;11.892;2022-12-07T13:28:49;6.47;;;4.00;;
5199;SDS011;2619;47.868;11.892;2022-12-07T13:31:20;6.07;;;3.67;;
5199;SDS011;2619;47.868;11.892;2022-12-07T13:33:52;5.20;;;4.10;;
5199;SDS011;2619;47.868;11.892;2022-12-07T13:36:20;4.60;;;3.30;;
5199;SDS011;2619;47.868;11.892;2022-12-07T13:38:49;5.57;;;3.53;;
5199;SDS011;2619;47.868;11.892;2022-12-07T13:41:16;6.47;;;3.90;;
5199;SDS011;2619;47.868;11.892;2022-12-07T13:46:14;6.20;;;3.80;;
5199;SDS011;2619;47.868;11.892;2022-12-07T13:51:19;6.83;;;4.00;;
5199;SDS011;2619;47.868;11.892;2022-12-07T13:53:51;7.70;;;3.80;;
5199;SDS011;2619;47.868;11.892;2022-12-07T13:56:20;5.97;;;3.87;;
5199;SDS011;2619;47.868;11.892;2022-12-07T13:58:47;12.43;;;3.70;;
5199;SDS011;2619;47.868;11.892;2022-12-07T14:01:13;6.67;;;4.30;;
5199;SDS011;2619;47.868;11.892;2022-12-07T14:03:39;5.77;;;3.63;;
5199;SDS011;2619;47.868;11.892;2022-12-07T14:08:32;6.30;;;3.80;;
5199;SDS011;2619;47.868;11.892;2022-12-07T14:10:58;7.07;;;3.60;;
5199;SDS011;2619;47.868;11.892;2022-12-07T14:16:02;5.70;;;3.40;;
5199;SDS011;2619;47.868;11.892;2022-12-07T14:18:40;5.20;;;3.70;;
5199;SDS011;2619;47.868;11.892;2022-12-07T14:21:13;6.23;;;3.40;;
5199;SDS011;2619;47.868;11.892;2022-12-07T14:23:39;5.30;;;3.20;;
5199;SDS011;2619;47.868;11.892;2022-12-07T14:26:12;5.50;;;3.50;;
5199;SDS011;2619;47.868;11.892;2022-12-07T14:28:45;5.70;;;3.63;;
5199;SDS011;2619;47.868;11.892;2022-12-07T14:31:16;6.80;;;3.80;;
5199;SDS011;2619;47.868;11.892;2022-12-07T14:33:43;10.83;;;4.20;;
5199;SDS011;2619;47.868;11.892;2022-12-07T14:36:10;5.87;;;3.97;;
5199;SDS011;2619;47.868;11.892;2022-12-07T14:38:37;5.73;;;2.83;;
5199;SDS011;2619;47.868;11.892;2022-12-07T14:41:03;4.80;;;3.20;;
5199;SDS011;2619;47.868;11.892;2022-12-07T14:43:48;4.90;;;2.70;;
5199;SDS011;2619;47.868;11.892;2022-12-07T14:46:13;7.60;;;3.90;;
5199;SDS011;2619;47.868;11.892;2022-12-07T14:48:39;5.63;;;3.73;;
5199;SDS011;2619;47.868;11.892;2022-12-07T14:51:04;5.40;;;3.10;;
5199;SDS011;2619;47.868;11.892;2022-12-07T14:53:33;5.23;;;3.33;;
5199;SDS011;2619;47.868;11.892;2022-12-07T14:56:02;15.13;;;4.53;;
5199;SDS011;2619;47.868;11.892;2022-12-07T14:58:30;5.90;;;3.90;;
5199;SDS011;2619;47.868;11.892;2022-12-07T15:00:57;6.37;;;3.87;;
5199;SDS011;2619;47.868;11.892;2022-12-07T15:03:23;5.43;;;3.80;;
5199;SDS011;2619;47.868;11.892;2022-12-07T15:05:48;8.10;;;4.80;;
5199;SDS011;2619;47.868;11.892;2022-12-07T15:08:14;6.20;;;3.90;;
5199;SDS011;2619;47.868;11.892;2022-12-07T15:10:40;5.93;;;3.67;;
5199;SDS011;2619;47.868;11.892;2022-12-07T15:13:05;5.90;;;3.80;;
5199;SDS011;2619;47.868;11.892;2022-12-07T15:15:52;7.37;;;4.33;;
5199;SDS011;2619;47.868;11.892;2022-12-07T15:18:18;6.40;;;3.60;;
5199;SDS011;2619;47.868;11.892;2022-12-07T15:20:45;7.20;;;3.60;;
5199;SDS011;2619;47.868;11.892;2022-12-07T15:23:12;7.10;;;4.13;;
5199;SDS011;2619;47.868;11.892;2022-12-07T15:25:41;7.77;;;4.17;;
5199;SDS011;2619;47.868;11.892;2022-12-07T15:28:07;6.20;;;3.90;;
5199;SDS011;2619;47.868;11.892;2022-12-07T15:30:33;6.23;;;4.23;;
5199;SDS011;2619;47.868;11.892;2022-12-07T15:32:58;10.27;;;4.70;;
5199;SDS011;2619;47.868;11.892;2022-12-07T15:35:24;10.70;;;5.77;;
5199;SDS011;2619;47.868;11.892;2022-12-07T15:37:50;8.10;;;4.67;;
5199;SDS011;2619;47.868;11.892;2022-12-07T15:40:15;8.30;;;5.20;;
5199;SDS011;2619;47.868;11.892;2022-12-07T15:42:41;9.80;;;5.57;;
5199;SDS011;2619;47.868;11.892;2022-12-07T15:45:07;11.50;;;5.47;;
5199;SDS011;2619;47.868;11.892;2022-12-07T15:47:40;10.00;;;6.23;;
5199;SDS011;2619;47.868;11.892;2022-12-07T15:50:10;9.10;;;5.20;;
5199;SDS011;2619;47.868;11.892;2022-12-07T15:52:37;8.17;;;4.73;;
5199;SDS011;2619;47.868;11.892;2022-12-07T15:55:03;7.67;;;4.63;;
5199;SDS011;2619;47.868;11.892;2022-12-07T15:57:29;8.43;;;5.90;;
5199;SDS011;2619;47.868;11.892;2022-12-07T15:59:55;9.30;;;6.00;;
5199;SDS011;2619;47.868;11.892;2022-12-07T16:02:21;11.70;;;6.00;;
5199;SDS011;2619;47.868;11.892;2022-12-07T16:04:47;9.90;;;6.13;;
5199;SDS011;2619;47.868;11.892;2022-12-07T16:07:13;8.37;;;5.37;;
5199;SDS011;2619;47.868;11.892;2022-12-07T16:09:40;8.80;;;5.50;;
5199;SDS011;2619;47.868;11.892;2022-12-07T16:12:07;8.40;;;5.20;;
5199;SDS011;2619;47.868;11.892;2022-12-07T16:14:32;9.60;;;5.67;;
5199;SDS011;2619;47.868;11.892;2022-12-07T16:16:58;8.87;;;5.20;;
5199;SDS011;2619;47.868;11.892;2022-12-07T16:19:24;10.07;;;6.30;;
5199;SDS011;2619;47.868;11.892;2022-12-07T16:21:50;10.33;;;6.10;;
5199;SDS011;2619;47.868;11.892;2022-12-07T16:24:15;11.83;;;6.70;;
5199;SDS011;2619;47.868;11.892;2022-12-07T16:26:41;8.87;;;6.00;;
5199;SDS011;2619;47.868;11.892;2022-12-07T16:29:07;9.97;;;6.00;;
5199;SDS011;2619;47.868;11.892;2022-12-07T16:31:35;10.33;;;6.30;;
5199;SDS011;2619;47.868;11.892;2022-12-07T16:34:00;11.00;;;6.07;;
5199;SDS011;2619;47.868;11.892;2022-12-07T16:36:26;10.67;;;6.23;;
5199;SDS011;2619;47.868;11.892;2022-12-07T16:38:52;7.17;;;4.70;;
5199;SDS011;2619;47.868;11.892;2022-12-07T16:41:18;6.30;;;4.03;;
5199;SDS011;2619;47.868;11.892;2022-12-07T16:43:44;7.87;;;4.53;;
5199;SDS011;2619;47.868;11.892;2022-12-07T16:46:11;6.27;;;4.60;;
5199;SDS011;2619;47.868;11.892;2022-12-07T16:48:37;6.90;;;4.30;;
5199;SDS011;2619;47.868;11.892;2022-12-07T16:51:04;7.57;;;4.40;;
5199;SDS011;2619;47.868;11.892;2022-12-07T16:53:31;10.27;;;5.10;;
5199;SDS011;2619;47.868;11.892;2022-12-07T16:55:56;7.70;;;4.50;;
5199;SDS011;2619;47.868;11.892;2022-12-07T16:58:22;7.60;;;4.57;;